Time;durP1;ratioP1;P1;durP2;ratioP2;P2;SDS_P1;SDS_P2;PMS_P1;PMS_P2;Temp;Humidity;BMP_temperature;BMP_pressure;BME280_temperature;BME280_humidity;BME280_pressure;Samples;Min_cycle;Max_cycle;Signal;HPM_P1;HPM_P2
2022/04/02 00:01:21;;;;;;;2.53;2.33;;;;;;;13.55;68.64;93191.66;5033700;28;20469;-88
2022/04/02 00:03:49;;;;;;;6.20;2.13;;;;;;;13.51;68.37;93209.69;5034346;28;20442;-88
2022/04/02 00:06:17;;;;;;;6.20;1.90;;;;;;;13.55;65.51;93202.19;5033581;28;20895;-88
2022/04/02 00:08:44;;;;;;;2.23;1.30;;;;;;;13.54;66.12;93211.94;5033706;28;20454;-89
2022/04/02 00:11:10;;;;;;;5.00;2.80;;;;;;;13.59;68.60;93204.31;5033790;28;20803;-89
2022/04/02 00:13:38;;;;;;;5.30;2.37;;;;;;;13.61;68.68;93201.47;5033883;28;20454;-88
2022/04/02 00:16:06;;;;;;;5.20;2.63;;;;;;;13.66;69.25;93206.97;4998860;28;20446;-89
2022/04/02 00:18:33;;;;;;;4.90;1.90;;;;;;;13.54;68.13;93206.66;5033701;28;20457;-88
2022/04/02 00:21:01;;;;;;;2.13;1.50;;;;;;;13.53;66.92;93215.56;5033377;28;20447;-88
2022/04/02 00:23:39;;;;;;;5.30;1.73;;;;;;;13.48;67.25;93214.50;5033730;28;20461;-89
2022/04/02 00:26:07;;;;;;;3.40;1.70;;;;;;;13.41;67.33;93211.00;5033375;28;20848;-89
2022/04/02 00:28:36;;;;;;;2.23;1.90;;;;;;;13.33;66.80;93210.13;5033804;28;20496;-88
2022/04/02 00:31:03;;;;;;;2.67;2.07;;;;;;;13.36;67.48;93216.84;5032800;28;20914;-88
2022/04/02 00:33:30;;;;;;;3.00;1.67;;;;;;;13.34;67.35;93216.22;5033603;28;20451;-88
2022/04/02 00:35:57;;;;;;;3.57;1.90;;;;;;;13.34;66.40;93221.50;5033288;28;20446;-89
2022/04/02 00:38:26;;;;;;;2.40;1.80;;;;;;;13.31;68.23;93203.44;5033282;28;20447;-89
2022/04/02 00:40:53;;;;;;;2.10;1.77;;;;;;;13.21;67.10;93222.16;5033565;28;20465;-87
2022/04/02 00:43:25;;;;;;;1.87;1.50;;;;;;;13.31;68.30;93227.13;5033420;28;20438;-88
2022/04/02 00:45:52;;;;;;;1.80;1.70;;;;;;;13.25;69.02;93233.13;5014395;28;20486;-89
2022/04/02 00:48:20;;;;;;;2.17;1.70;;;;;;;13.22;68.28;93241.41;5033069;28;20438;-88
2022/04/02 00:50:48;;;;;;;12.13;1.83;;;;;;;13.25;66.94;93249.75;5033282;28;20457;-89
2022/04/02 00:53:16;;;;;;;74.77;42.47;;;;;;;13.19;65.76;93252.31;5033145;28;20445;-89
2022/04/02 00:55:44;;;;;;;3.00;1.90;;;;;;;13.07;65.21;93251.16;5033310;28;20462;-89
2022/04/02 00:58:12;;;;;;;1.57;1.40;;;;;;;13.11;65.27;93261.13;5032916;28;20461;-89
2022/04/02 01:00:40;;;;;;;7.57;1.97;;;;;;;13.11;65.54;93261.13;5033229;28;20462;-89
2022/04/02 01:03:09;;;;;;;2.50;1.73;;;;;;;13.14;65.56;93273.09;5032855;28;20446;-88
2022/04/02 01:05:37;;;;;;;2.90;1.53;;;;;;;13.18;64.88;93275.22;5032804;28;20497;-87
2022/04/02 01:08:05;;;;;;;1.87;1.60;;;;;;;13.17;64.27;93260.41;5032962;28;20451;-89
2022/04/02 01:10:32;;;;;;;3.30;1.63;;;;;;;13.21;64.03;93259.03;5032762;28;20457;-89
2022/04/02 01:13:01;;;;;;;1.53;1.43;;;;;;;13.22;64.73;93244.03;5032702;28;20812;-89
2022/04/02 01:15:28;;;;;;;6.90;2.10;;;;;;;13.30;65.11;93244.75;5033061;28;20435;-88
2022/04/02 01:17:55;;;;;;;4.67;1.60;;;;;;;13.35;63.98;93249.47;5032996;28;20450;-89
2022/04/02 01:20:24;;;;;;;1.63;1.53;;;;;;;13.34;62.92;93239.94;5032911;28;20435;-89
2022/04/02 01:22:52;;;;;;;2.03;1.73;;;;;;;13.45;63.07;93257.88;5032874;28;20446;-89
2022/04/02 01:25:20;;;;;;;1.90;1.80;;;;;;;13.43;63.53;93262.50;5032746;28;20450;-89
2022/04/02 01:27:47;;;;;;;1.93;1.50;;;;;;;13.41;63.22;93261.06;5032583;28;20465;-87
2022/04/02 01:30:15;;;;;;;2.23;1.47;;;;;;;13.44;63.52;93256.25;5032861;28;20839;-88
2022/04/02 01:32:43;;;;;;;3.80;1.70;;;;;;;13.36;63.12;93251.09;5032663;28;20447;-88
2022/04/02 01:35:11;;;;;;;1.77;1.67;;;;;;;13.39;62.72;93265.72;5032767;28;20548;-88
2022/04/02 01:37:39;;;;;;;1.70;1.60;;;;;;;13.40;63.17;93276.06;5032617;28;20454;-90
2022/04/02 01:40:08;;;;;;;2.23;2.03;;;;;;;13.35;62.60;93275.81;5033090;28;20439;-89
2022/04/02 01:42:35;;;;;;;1.80;1.70;;;;;;;13.25;62.60;93276.09;5032679;28;20442;-89
2022/04/02 01:45:03;;;;;;;3.23;1.93;;;;;;;13.18;62.33;93267.31;5032767;28;20454;-89
2022/04/02 01:47:30;;;;;;;8.10;1.77;;;;;;;13.10;62.50;93261.31;5032588;28;20497;-89
2022/04/02 01:49:57;;;;;;;1.73;1.47;;;;;;;13.21;62.25;93268.75;5032631;28;20453;-88
2022/04/02 01:52:24;;;;;;;1.60;1.50;;;;;;;13.19;60.44;93268.13;4997957;28;20446;-88
2022/04/02 01:54:51;;;;;;;5.03;1.63;;;;;;;13.20;60.67;93269.75;5033183;28;20450;-89
2022/04/02 01:57:19;;;;;;;4.13;1.53;;;;;;;13.19;61.15;93270.75;5032832;28;20435;-89
2022/04/02 01:59:48;;;;;;;2.03;1.90;;;;;;;13.19;61.46;93276.03;5032480;28;20446;-89
2022/04/02 02:02:15;;;;;;;2.97;2.20;;;;;;;13.31;62.72;93271.91;5032556;28;20449;-89
2022/04/02 02:04:42;;;;;;;2.10;1.93;;;;;;;13.08;61.80;93263.31;5032471;28;20459;-89
2022/04/02 02:07:10;;;;;;;3.57;2.33;;;;;;;13.02;63.15;93276.22;5032521;28;20479;-88
2022/04/02 02:09:37;;;;;;;5.40;2.50;;;;;;;13.20;63.30;93270.56;5032616;28;20480;-89
2022/04/02 02:12:05;;;;;;;3.00;2.07;;;;;;;12.91;62.20;93263.50;5036168;28;20443;-88
2022/04/02 02:14:34;;;;;;;1.87;1.77;;;;;;;12.69;62.45;93259.16;5035685;28;20480;-89
2022/04/02 02:17:01;;;;;;;2.53;1.77;;;;;;;12.78;63.36;93252.81;5000743;28;20439;-89
2022/04/02 02:19:28;;;;;;;8.33;2.00;;;;;;;12.63;61.52;93246.75;5036013;28;20446;-88
2022/04/02 02:21:56;;;;;;;1.97;1.77;;;;;;;12.61;61.34;93246.13;5035504;28;20442;-88
2022/04/02 02:24:23;;;;;;;2.07;1.70;;;;;;;12.56;62.20;93233.50;5035724;28;20451;-88
2022/04/02 02:26:50;;;;;;;4.20;1.80;;;;;;;12.60;61.80;93234.78;5035515;28;20988;-89
2022/04/02 02:29:17;;;;;;;2.97;1.80;;;;;;;12.64;61.60;93235.22;5035514;28;20904;-89
2022/04/02 02:31:45;;;;;;;2.63;1.53;;;;;;;12.73;61.57;93228.88;5035612;28;20439;-88
2022/04/02 02:36:57;;;;;;;2.10;1.53;;;;;;;12.94;61.70;93236.81;5038859;28;20438;-89
2022/04/02 02:39:24;;;;;;;2.27;1.50;;;;;;;13.08;61.06;93229.91;5035396;28;20505;-89
2022/04/02 02:41:51;;;;;;;1.40;1.30;;;;;;;13.08;59.12;93234.34;5035836;28;20929;-88
2022/04/02 02:44:18;;;;;;;2.60;1.83;;;;;;;13.02;57.00;93233.28;5035374;28;20462;-88
2022/04/02 02:46:46;;;;;;;2.37;1.53;;;;;;;13.08;57.40;93239.63;5034961;28;20490;-88
2022/04/02 02:49:13;;;;;;;2.97;1.40;;;;;;;13.08;58.21;93221.19;5035649;28;20458;-88
2022/04/02 02:51:40;;;;;;;2.23;1.90;;;;;;;12.99;56.30;93228.34;4984689;28;20477;-90
2022/04/02 02:54:07;;;;;;;2.10;1.80;;;;;;;13.01;57.42;93226.38;5034890;28;20938;-88
2022/04/02 02:56:34;;;;;;;1.70;1.60;;;;;;;12.97;57.36;93225.91;5035092;28;20446;-89
2022/04/02 02:59:01;;;;;;;2.40;2.20;;;;;;;12.97;57.80;93201.41;5034676;28;20529;-86
2022/04/02 03:01:28;;;;;;;4.07;3.50;;;;;;;12.95;57.94;93227.91;5034694;28;20795;-87
2022/04/02 03:03:57;;;;;;;1.63;1.47;;;;;;;12.89;59.46;93220.75;5034468;28;20450;-86
2022/04/02 03:06:23;;;;;;;1.57;1.43;;;;;;;12.93;57.48;93232.53;5034769;28;20482;-86
2022/04/02 03:08:51;;;;;;;2.43;1.90;;;;;;;12.88;59.87;93221.75;5034800;28;20450;-88
2022/04/02 03:11:18;;;;;;;3.87;2.50;;;;;;;12.72;60.40;93224.59;5034907;28;20862;-88
2022/04/02 03:13:45;;;;;;;3.47;1.73;;;;;;;12.73;60.86;93228.88;5035036;28;20945;-88
2022/04/02 03:16:13;;;;;;;3.00;1.70;;;;;;;12.70;60.12;93229.22;5034815;28;20443;-89
2022/04/02 03:18:39;;;;;;;1.93;1.53;;;;;;;12.71;61.36;93238.75;5034791;28;20449;-89
2022/04/02 03:21:08;;;;;;;2.87;1.93;;;;;;;12.69;61.37;93238.94;5034508;28;20457;-88
2022/04/02 03:23:35;;;;;;;1.77;1.37;;;;;;;12.48;61.62;93230.16;4999580;28;20437;-87
2022/04/02 03:26:02;;;;;;;1.60;1.40;;;;;;;12.43;62.12;93228.06;5034683;28;20446;-88
2022/04/02 03:28:29;;;;;;;1.50;1.40;;;;;;;12.39;62.40;93246.03;5034636;28;20457;-87
2022/04/02 03:30:56;;;;;;;2.67;1.57;;;;;;;12.40;62.10;93252.91;5034062;28;20504;-88
2022/04/02 03:33:23;;;;;;;4.73;1.70;;;;;;;12.53;62.56;93240.97;5034859;28;20461;-88
2022/04/02 03:35:50;;;;;;;2.33;1.40;;;;;;;12.37;62.62;93237.50;5034376;28;20514;-89
2022/04/02 03:38:18;;;;;;;2.43;1.40;;;;;;;12.37;60.51;93234.88;5034454;28;20458;-89
2022/04/02 03:40:45;;;;;;;1.90;1.70;;;;;;;12.40;60.97;93229.25;5034882;28;20447;-89
2022/04/02 03:43:12;;;;;;;2.90;1.63;;;;;;;12.50;60.30;93215.03;5034488;28;20461;-88
2022/04/02 03:45:39;;;;;;;2.93;1.57;;;;;;;12.62;61.34;93226.69;5034265;28;20542;-89
2022/04/02 03:48:06;;;;;;;2.33;1.30;;;;;;;12.52;60.32;93241.97;5034222;28;21260;-88
2022/04/02 03:50:34;;;;;;;1.50;1.40;;;;;;;12.53;58.06;93238.31;5034200;28;20462;-89
2022/04/02 03:53:01;;;;;;;2.60;1.83;;;;;;;12.57;58.49;93234.34;5033873;28;20447;-88
2022/04/02 03:55:29;;;;;;;2.00;1.50;;;;;;;12.73;57.63;93236.78;5034342;28;20525;-88
2022/04/02 03:57:56;;;;;;;1.37;1.27;;;;;;;12.82;58.47;93217.25;5034350;28;20496;-89
2022/04/02 04:00:23;;;;;;;2.33;2.10;;;;;;;12.87;58.21;93235.94;5033520;28;20473;-89
2022/04/02 04:02:50;;;;;;;2.77;1.90;;;;;;;12.53;63.45;93256.75;5033280;28;20829;-87
2022/04/02 04:05:19;;;;;;;4.23;1.90;;;;;;;12.27;64.20;93255.38;5033672;28;20447;-87
2022/04/02 04:07:46;;;;;;;3.63;2.27;;;;;;;12.46;63.90;93263.75;5034437;28;20481;-89
2022/04/02 04:10:13;;;;;;;2.23;2.03;;;;;;;12.40;62.77;93273.97;5034057;28;20808;-90
2022/04/02 04:12:42;;;;;;;3.57;1.93;;;;;;;12.34;63.00;93293.09;5034682;28;20538;-85
2022/04/02 04:15:09;;;;;;;1.97;1.87;;;;;;;12.38;64.32;93293.56;5034677;28;20470;-86
2022/04/02 04:17:36;;;;;;;1.80;1.70;;;;;;;12.64;68.18;93303.66;5034640;28;20449;-89
2022/04/02 04:20:04;;;;;;;4.90;2.50;;;;;;;12.75;64.78;93312.91;5034459;28;20449;-90
2022/04/02 04:22:31;;;;;;;3.37;3.07;;;;;;;13.10;63.44;93312.16;5035335;28;20868;-91
2022/04/02 04:24:59;;;;;;;2.27;2.07;;;;;;;13.41;59.00;93305.84;5035368;28;20459;-91
2022/04/02 04:27:26;;;;;;;3.03;1.67;;;;;;;14.02;58.58;93293.88;5035229;28;20482;-91
2022/04/02 04:29:55;;;;;;;4.30;1.83;;;;;;;14.81;56.31;93305.03;5034692;28;21226;-90
2022/04/02 04:32:21;;;;;;;1.97;1.83;;;;;;;15.66;53.46;93308.28;5035474;28;20482;-91
2022/04/02 04:34:48;;;;;;;1.30;1.20;;;;;;;15.88;50.00;93301.78;5034748;28;20953;-90
2022/04/02 04:37:15;;;;;;;3.03;1.83;;;;;;;16.56;50.90;93310.41;5036055;28;20461;-90
2022/04/02 04:39:42;;;;;;;2.53;1.43;;;;;;;17.19;48.83;93321.31;5035405;28;20461;-88
2022/04/02 04:42:09;;;;;;;1.53;1.40;;;;;;;17.51;48.50;93345.25;5035233;28;20437;-89
2022/04/02 04:44:36;;;;;;;1.60;1.40;;;;;;;16.14;53.96;93321.38;5034251;28;20454;-89
2022/04/02 04:47:05;;;;;;;3.97;1.90;;;;;;;15.63;55.91;93325.34;5034059;28;20470;-89
2022/04/02 04:49:32;;;;;;;2.03;1.60;;;;;;;15.10;56.07;93327.75;5034464;28;20469;-89
2022/04/02 04:51:59;;;;;;;5.90;1.70;;;;;;;14.36;57.65;93339.81;5034447;28;20466;-89
2022/04/02 04:54:26;;;;;;;1.97;1.80;;;;;;;14.19;58.84;93341.94;5033893;28;20510;-87
2022/04/02 04:56:53;;;;;;;3.03;2.73;;;;;;;14.01;58.82;93350.28;5033789;28;20443;-89
2022/04/02 04:59:20;;;;;;;2.30;2.10;;;;;;;13.99;59.58;93341.75;5033765;28;20449;-89
2022/04/02 05:01:47;;;;;;;1.80;1.70;;;;;;;14.31;60.13;93334.31;5033842;28;20461;-87
2022/04/02 05:04:16;;;;;;;1.70;1.60;;;;;;;14.97;57.04;93334.78;5033833;28;20442;-86
2022/04/02 05:06:43;;;;;;;1.37;1.27;;;;;;;15.72;52.81;93312.75;5033425;28;20485;-86
2022/04/02 05:09:16;;;;;;;1.10;1.00;;;;;;;16.43;49.09;93320.97;5033728;28;20431;-89
2022/04/02 05:11:43;;;;;;;1.30;1.10;;;;;;;17.06;47.77;93321.34;5033705;28;20937;-89
2022/04/02 05:14:12;;;;;;;1.50;1.40;;;;;;;17.59;44.42;93329.09;5034387;28;20445;-88
2022/04/02 05:16:39;;;;;;;1.40;1.10;;;;;;;17.89;45.16;93330.22;5034647;28;20442;-86
2022/04/02 05:19:07;;;;;;;13.10;10.83;;;;;;;18.34;53.50;93316.03;5034242;28;20451;-88
2022/04/02 05:21:36;;;;;;;4.43;3.90;;;;;;;18.81;46.13;93315.50;5033718;28;20455;-84
2022/04/02 05:24:03;;;;;;;3.70;3.30;;;;;;;19.27;48.50;93314.19;5033724;28;20465;-88
2022/04/02 05:26:30;;;;;;;2.13;1.93;;;;;;;19.26;42.35;93317.88;5034209;28;20441;-90
2022/04/02 05:28:57;;;;;;;7.20;1.63;;;;;;;19.14;43.85;93325.78;5033952;28;20502;-85
2022/04/02 05:31:25;;;;;;;6.23;2.43;;;;;;;19.24;42.45;93321.81;5038077;28;20458;-87
2022/04/02 05:33:54;;;;;;;4.78;2.85;;;;;;;19.40;40.48;93331.88;5033404;28;20464;-86
2022/04/02 05:36:24;;;;;;;3.10;1.67;;;;;;;19.45;39.21;93329.34;5034416;28;20266;-88
2022/04/02 05:38:52;;;;;;;3.10;1.20;;;;;;;18.34;39.75;93319.50;5033295;28;20446;-87
2022/04/02 05:41:19;;;;;;;3.80;1.30;;;;;;;17.44;41.82;93339.19;5034211;28;20439;-89
2022/04/02 05:43:46;;;;;;;1.27;1.10;;;;;;;17.28;42.48;93321.88;5034503;28;21027;-87
2022/04/02 05:46:13;;;;;;;3.10;1.20;;;;;;;17.41;43.11;93329.00;5038132;28;20446;-88
2022/04/02 05:48:40;;;;;;;1.93;1.10;;;;;;;17.94;42.57;93341.03;5037463;28;20465;-90
2022/04/02 05:51:07;;;;;;;1.50;1.17;;;;;;;17.90;42.19;93331.84;5039262;28;20545;-88
2022/04/02 05:53:34;;;;;;;1.20;1.10;;;;;;;17.40;42.79;93340.63;5037844;28;20463;-85
2022/04/02 05:56:03;;;;;;;5.17;1.40;;;;;;;16.97;45.66;93325.22;5038035;28;20473;-87
2022/04/02 05:58:30;;;;;;;2.03;1.53;;;;;;;17.03;45.29;93322.56;5037451;28;20446;-85
2022/04/02 06:00:57;;;;;;;1.70;1.20;;;;;;;16.94;44.51;93336.25;5036563;28;20430;-87
2022/04/02 06:03:24;;;;;;;1.53;1.30;;;;;;;16.36;45.57;93338.69;5036995;28;20435;-86
2022/04/02 06:15:58;;;;;;;3.33;1.47;;;;;;;15.82;51.50;93339.63;5036792;28;20426;-87
2022/04/02 06:18:25;;;;;;;1.50;1.40;;;;;;;15.76;47.38;93343.91;5036521;28;20489;-89
2022/04/02 06:20:52;;;;;;;1.53;1.30;;;;;;;15.88;45.94;93345.94;5036709;28;20441;-90
2022/04/02 06:23:19;;;;;;;1.87;1.37;;;;;;;16.04;46.64;93358.81;5037363;28;20443;-87
2022/04/02 06:36:17;;;;;;;3.33;1.70;;;;;;;16.16;45.32;93390.78;5034607;28;20859;-87
2022/04/02 06:38:44;;;;;;;3.47;1.87;;;;;;;16.06;46.39;93401.75;5036077;28;20466;-88
2022/04/02 06:41:11;;;;;;;2.17;1.77;;;;;;;15.91;45.69;93399.31;5016510;28;20870;-89
2022/04/02 06:43:38;;;;;;;2.47;1.57;;;;;;;15.80;46.04;93403.31;5016718;28;20436;-89
2022/04/02 06:46:05;;;;;;;6.03;1.87;;;;;;;15.48;47.67;93393.38;5016469;28;20515;-87
2022/04/02 06:48:32;;;;;;;2.00;1.90;;;;;;;15.33;48.48;93393.53;5023838;28;20908;-87
2022/04/02 06:50:59;;;;;;;7.10;2.03;;;;;;;15.08;48.90;93390.53;5036122;28;20457;-86
2022/04/02 06:53:27;;;;;;;3.40;1.50;;;;;;;15.23;48.96;93408.91;5036367;28;20449;-87
2022/04/02 06:55:54;;;;;;;1.67;1.57;;;;;;;15.23;49.75;93395.69;5035739;28;20463;-87
2022/04/02 06:58:27;;;;;;;1.70;1.60;;;;;;;15.31;47.65;93405.28;5036445;28;20439;-87
2022/04/02 07:00:54;;;;;;;4.30;3.57;;;;;;;15.05;46.09;93405.97;5035836;28;20501;-87
2022/04/02 07:03:21;;;;;;;2.07;1.67;;;;;;;15.04;44.82;93406.97;5035543;28;20430;-87
2022/04/02 07:05:48;;;;;;;2.17;1.43;;;;;;;15.04;45.32;93417.53;5035816;28;20435;-86
2022/04/02 07:08:14;;;;;;;4.33;2.00;;;;;;;15.15;46.72;93411.72;5035457;28;20466;-87
2022/04/02 07:10:43;;;;;;;2.07;1.87;;;;;;;15.17;46.92;93412.34;5001245;28;20450;-87
2022/04/02 07:13:10;;;;;;;1.50;1.37;;;;;;;14.94;47.11;93415.22;5035911;28;20446;-86
2022/04/02 07:15:39;;;;;;;1.60;1.50;;;;;;;14.66;48.53;93415.22;5036362;28;20443;-88
2022/04/02 07:18:08;;;;;;;2.67;1.50;;;;;;;14.45;48.03;93399.41;4984959;28;20438;-86
2022/04/02 07:20:36;;;;;;;2.20;1.80;;;;;;;14.28;48.11;93401.47;5036066;28;20439;-87
2022/04/02 07:23:04;;;;;;;2.43;1.67;;;;;;;14.27;48.11;93405.09;5035253;28;20443;-88
2022/04/02 07:25:31;;;;;;;1.40;1.20;;;;;;;14.19;49.52;93416.63;5035772;28;20885;-86
2022/04/02 07:27:59;;;;;;;2.03;1.30;;;;;;;14.20;50.18;93418.25;5035078;28;20494;-88
2022/04/02 07:30:26;;;;;;;2.10;1.50;;;;;;;14.12;48.96;93407.78;5034832;28;20451;-86
2022/04/02 07:32:54;;;;;;;4.60;1.70;;;;;;;14.32;49.04;93412.44;5035111;28;20474;-87
2022/04/02 07:35:20;;;;;;;2.57;1.70;;;;;;;14.34;49.47;93432.38;5035366;28;20431;-88
2022/04/02 07:38:02;;;;;;;4.23;1.70;;;;;;;14.56;50.27;93423.47;5035199;28;20947;-87
2022/04/02 07:40:35;;;;;;;2.13;1.90;;;;;;;14.58;49.07;93420.63;5022925;28;20810;-88
2022/04/02 07:43:10;;;;;;;2.40;2.07;;;;;;;14.86;48.61;93423.31;5035617;28;20513;-89
2022/04/02 07:45:40;;;;;;;2.50;1.60;;;;;;;15.03;47.39;93418.53;5035456;28;20468;-88
2022/04/02 07:48:09;;;;;;;3.20;1.60;;;;;;;15.17;46.86;93413.16;5033209;28;20494;-87
2022/04/02 07:50:41;;;;;;;2.77;1.60;;;;;;;15.28;45.30;93421.53;4965138;28;20684;-89
2022/04/02 07:53:13;;;;;;;3.90;2.87;;;;;;;15.29;46.83;93415.25;5023587;28;20451;-88
2022/04/02 07:55:42;;;;;;;2.17;1.90;;;;;;;15.31;45.98;93426.44;5034375;28;20469;-88
2022/04/02 07:58:14;;;;;;;1.90;1.67;;;;;;;15.35;46.09;93419.78;5035377;28;20451;-88
2022/04/02 08:00:42;;;;;;;7.00;2.63;;;;;;;15.21;47.00;93415.41;5034431;28;20435;-89
2022/04/02 08:03:10;;;;;;;10.90;3.13;;;;;;;15.12;47.37;93405.00;5034632;28;20500;-87
2022/04/02 08:05:38;;;;;;;1.80;1.70;;;;;;;15.03;45.54;93407.97;5034411;28;20447;-89
2022/04/02 08:08:08;;;;;;;2.10;1.90;;;;;;;15.11;47.17;93413.94;5034013;28;20474;-88
2022/04/02 08:10:35;;;;;;;2.30;1.60;;;;;;;15.17;46.16;93404.41;5000078;28;20451;-88
2022/04/02 08:13:02;;;;;;;4.10;2.33;;;;;;;15.33;46.32;93414.69;5034052;28;20435;-88
2022/04/02 08:15:31;;;;;;;4.10;2.20;;;;;;;15.46;46.24;93419.19;5034112;28;20465;-88
2022/04/02 08:17:59;;;;;;;5.47;1.80;;;;;;;15.53;46.84;93411.31;5033955;28;20447;-87
2022/04/02 08:20:26;;;;;;;4.63;1.70;;;;;;;15.58;45.96;93398.31;5034464;28;20450;-87
2022/04/02 08:22:55;;;;;;;3.20;2.47;;;;;;;15.67;44.81;93394.53;5034452;28;20937;-88
2022/04/02 08:25:21;;;;;;;5.20;3.33;;;;;;;15.85;46.47;93402.72;5035077;28;20450;-86
2022/04/02 08:28:00;;;;;;;2.90;2.60;;;;;;;16.00;46.00;93392.81;4999655;28;20485;-87
2022/04/02 08:30:32;;;;;;;8.10;2.80;;;;;;;16.15;46.00;93405.84;5034051;28;21013;-86
2022/04/02 08:33:27;;;;;;;7.63;2.70;;;;;;;16.27;45.56;93403.44;5034574;28;20800;-87
2022/04/02 08:36:03;;;;;;;3.60;2.17;;;;;;;16.38;45.38;93402.84;5034672;28;20474;-86
2022/04/02 08:38:40;;;;;;;4.53;2.20;;;;;;;16.42;43.51;93417.31;5033952;28;20917;-87
2022/04/02 08:41:42;;;;;;;8.23;2.20;;;;;;;16.50;43.70;93413.66;5034141;28;20539;-87
2022/04/02 08:44:39;;;;;;;2.20;2.10;;;;;;;16.37;42.00;93417.91;4992491;28;20531;-86
2022/04/02 08:47:28;;;;;;;3.97;2.00;;;;;;;16.22;43.48;93432.34;4992233;28;20453;-86
2022/04/02 08:50:07;;;;;;;3.13;2.37;;;;;;;16.07;42.76;93440.44;4943909;28;20437;-87
2022/04/02 08:52:49;;;;;;;2.90;2.17;;;;;;;16.28;43.41;93452.72;4992145;28;20452;-86
2022/04/02 08:55:18;;;;;;;5.30;2.63;;;;;;;16.45;44.02;93456.63;4991872;28;20997;-87
2022/04/02 08:58:09;;;;;;;2.30;2.10;;;;;;;16.52;42.69;93462.75;4991884;28;20441;-86
2022/04/02 09:00:41;;;;;;;5.80;4.23;;;;;;;16.49;43.47;93465.00;4992560;28;20961;-87
2022/04/02 09:03:58;;;;;;;6.73;4.30;;;;;;;16.38;43.51;93463.72;4992435;28;20449;-86
2022/04/02 09:07:02;;;;;;;4.23;2.60;;;;;;;16.19;42.11;93456.53;4934716;29;21009;-86
2022/04/02 09:10:07;;;;;;;5.40;3.07;;;;;;;16.05;44.01;93445.94;4934783;29;20941;-87
2022/04/02 09:12:49;;;;;;;3.77;2.00;;;;;;;15.60;43.67;93414.81;4841025;29;20455;-88
2022/04/02 09:15:29;;;;;;;2.37;2.10;;;;;;;15.69;43.94;93408.38;4810976;29;20447;-86
2022/04/02 09:35:41;;;;;;;5.47;2.63;;;;;;;17.85;40.71;93418.41;5132047;27;20541;-82
2022/04/02 09:38:29;;;;;;;2.17;1.97;;;;;;;18.22;41.20;93422.97;5132167;28;20451;-82
2022/04/02 09:41:10;;;;;;;2.40;1.43;;;;;;;18.56;40.51;93413.75;5131484;28;20808;-83
2022/04/02 09:43:39;;;;;;;3.53;2.00;;;;;;;18.62;38.58;93379.38;5126371;28;20471;-83
2022/04/02 09:46:23;;;;;;;4.70;1.80;;;;;;;18.86;39.53;93391.91;5106076;28;20461;-82
2022/04/02 09:48:58;;;;;;;2.27;2.10;;;;;;;19.05;39.32;93390.91;5109587;28;20450;-81
2022/04/02 09:51:32;;;;;;;2.10;1.77;;;;;;;19.18;38.41;93400.63;5110189;28;20772;-83
2022/04/02 09:54:03;;;;;;;5.83;2.93;;;;;;;19.18;38.60;93392.66;5109884;28;20447;-84
2022/04/02 09:56:35;;;;;;;4.63;2.60;;;;;;;19.11;38.93;93392.72;5110360;28;20446;-82
2022/04/02 09:59:08;;;;;;;6.83;2.37;;;;;;;19.02;41.62;93394.00;5109944;28;20937;-85
2022/04/02 10:01:40;;;;;;;2.50;2.30;;;;;;;19.07;40.03;93391.50;5109872;28;20439;-84
2022/04/02 10:04:30;;;;;;;4.77;2.60;;;;;;;19.02;39.15;93411.78;5110166;28;20556;-82
2022/04/02 10:06:58;;;;;;;4.77;2.50;;;;;;;18.75;38.18;93380.13;5110024;28;20929;-85
2022/04/02 10:09:34;;;;;;;6.73;2.47;;;;;;;18.81;39.10;93387.25;5109969;28;20487;-84
2022/04/02 10:12:03;;;;;;;2.20;2.00;;;;;;;18.73;37.53;93376.06;5109842;28;20535;-84
2022/04/02 10:14:34;;;;;;;5.83;2.10;;;;;;;18.69;37.43;93378.34;5109736;28;20443;-85
2022/04/02 10:17:04;;;;;;;1.87;1.77;;;;;;;18.79;37.58;93375.19;5110227;28;20472;-83
2022/04/02 10:19:32;;;;;;;2.50;2.30;;;;;;;18.72;36.40;93364.59;5108376;28;20446;-85
2022/04/02 10:22:03;;;;;;;3.67;2.30;;;;;;;18.78;36.51;93346.97;5111141;28;20419;-86
2022/04/02 10:24:37;;;;;;;4.10;1.90;;;;;;;18.75;36.31;93363.34;5109807;28;20481;-82
2022/04/02 10:27:06;;;;;;;3.00;1.53;;;;;;;18.63;36.07;93352.63;5110260;28;20427;-81
2022/04/02 11:20:44;;;;;;;4.30;2.07;;;;;;;17.80;46.73;93418.25;5082680;28;20464;-82
2022/04/02 11:23:15;;;;;;;3.50;1.73;;;;;;;17.50;45.15;93404.63;5099724;28;20570;-83
2022/04/02 11:25:49;;;;;;;2.00;1.80;;;;;;;17.31;48.37;93416.91;5098854;28;20456;-83
2022/04/02 11:28:16;;;;;;;3.10;1.80;;;;;;;17.22;50.24;93403.06;5098197;28;20439;-84
2022/04/02 11:30:46;;;;;;;2.23;1.90;;;;;;;17.30;52.01;93386.94;5096090;28;20427;-84
2022/04/02 11:33:15;;;;;;;112.17;88.57;;;;;;;17.37;56.27;93386.13;5096093;28;20459;-88
2022/04/02 11:35:47;;;;;;;7.00;5.43;;;;;;;17.53;52.14;93396.25;5096067;28;20991;-86
2022/04/02 11:41:39;;;;;;;8.60;5.17;;;;;;;17.70;49.56;93392.16;5085095;28;20428;-86
2022/04/02 11:44:10;;;;;;;175.77;139.30;;;;;;;17.63;50.12;93408.03;5076654;28;20865;-88
2022/04/02 11:47:02;;;;;;;8.80;6.50;;;;;;;17.76;50.56;93415.19;5078128;28;20445;-87
2022/04/02 11:49:32;;;;;;;59.70;30.90;;;;;;;17.87;53.72;93411.88;5013746;28;20448;-88
2022/04/02 11:52:05;;;;;;;57.17;28.37;;;;;;;17.92;53.77;93413.88;5016063;28;20474;-87
2022/04/02 11:54:33;;;;;;;29.67;16.90;;;;;;;18.14;54.06;93411.75;5013785;28;20541;-88
2022/04/02 11:57:08;;;;;;;14.90;6.00;;;;;;;17.89;54.38;93414.31;5015435;28;20458;-88
2022/04/02 11:59:36;;;;;;;23.97;15.83;;;;;;;17.58;51.52;93430.94;5014362;28;20875;-87
2022/04/02 12:02:05;;;;;;;86.50;53.63;;;;;;;17.26;53.67;93467.09;5014836;28;20455;-85
2022/04/02 12:04:34;;;;;;;40.50;26.40;;;;;;;16.82;58.84;93475.66;5014577;28;20558;-90
2022/04/02 12:07:08;;;;;;;12.93;3.00;;;;;;;15.96;58.77;93481.53;5015051;28;20440;-84
2022/04/02 12:09:35;;;;;;;4.53;3.20;;;;;;;15.00;65.16;93493.69;5014828;28;20439;-83
2022/04/02 12:12:06;;;;;;;8.23;4.87;;;;;;;14.29;73.19;93516.56;5015349;28;20432;-87
2022/04/02 12:14:36;;;;;;;5.73;3.97;;;;;;;14.86;72.16;93524.47;5017882;28;20466;-86
2022/04/02 12:17:06;;;;;;;3.27;2.97;;;;;;;14.97;71.08;93530.25;5013101;28;20788;-85
2022/04/02 12:19:37;;;;;;;2.17;1.97;;;;;;;14.72;68.13;93520.06;5013034;28;20466;-87
2022/04/02 12:22:20;;;;;;;3.83;2.77;;;;;;;14.50;69.06;93519.25;5012312;28;20475;-82
2022/04/02 12:24:49;;;;;;;5.60;3.27;;;;;;;14.42;72.40;93510.59;5012539;28;20486;-82
2022/04/02 12:27:18;;;;;;;3.20;2.37;;;;;;;14.32;72.12;93497.72;5074290;28;20444;-82
2022/04/02 12:29:47;;;;;;;2.30;2.10;;;;;;;14.06;69.02;93490.31;5079562;28;20440;-82
2022/04/02 12:35:37;;;;;;;3.20;1.80;;;;;;;13.54;76.32;93469.38;5077036;28;20476;-81
2022/04/02 12:38:08;;;;;;;3.73;2.20;;;;;;;13.49;74.95;93477.84;5076260;28;20437;-83
2022/04/02 12:40:41;;;;;;;2.10;1.90;;;;;;;13.46;73.72;93472.94;5075217;28;20953;-86
2022/04/02 12:43:10;;;;;;;2.90;2.60;;;;;;;13.92;79.32;93462.16;5077602;28;20520;-86
2022/04/02 12:45:39;;;;;;;2.20;2.00;;;;;;;14.27;72.19;93460.53;5074483;28;20468;-88
2022/04/02 12:48:07;;;;;;;3.73;3.43;;;;;;;14.55;70.24;93458.78;5074444;28;20452;-86
2022/04/02 12:50:36;;;;;;;2.33;1.80;;;;;;;14.33;67.74;93459.75;5072523;28;20436;-82
2022/04/02 12:59:55;;;;;;;2.13;1.93;;;;;;;14.67;65.06;93466.19;5072846;28;20487;-84
2022/04/02 13:02:25;;;;;;;3.50;2.07;;;;;;;15.21;66.13;93479.63;5075119;28;20779;-82
2022/04/02 13:04:54;;;;;;;2.53;1.80;;;;;;;15.44;65.74;93501.34;5073971;28;20534;-83
2022/04/02 13:07:21;;;;;;;1.87;1.77;;;;;;;15.59;62.48;93529.53;5074017;28;20431;-84
2022/04/02 13:09:49;;;;;;;1.70;1.60;;;;;;;16.14;64.42;93519.84;5076879;28;20437;-85
2022/04/02 13:12:21;;;;;;;2.07;1.70;;;;;;;16.96;60.09;93520.50;5081265;28;20483;-83
2022/04/02 13:15:02;;;;;;;2.60;1.80;;;;;;;16.87;58.20;93534.16;5075754;28;20915;-83
2022/04/02 13:17:39;;;;;;;4.43;3.20;;;;;;;16.61;61.02;93558.72;5074309;28;20429;-83
2022/04/02 13:22:56;;;;;;;3.00;2.00;;;;;;;15.95;61.26;93530.16;5045681;28;20852;-83
2022/04/02 13:25:24;;;;;;;6.67;2.60;;;;;;;15.66;68.57;93512.72;5075266;28;20487;-84
2022/04/02 13:28:10;;;;;;;2.13;1.80;;;;;;;15.01;70.85;93473.38;5073835;28;20438;-83
2022/04/02 13:30:40;;;;;;;3.50;2.97;;;;;;;14.54;69.67;93466.91;5038766;28;20528;-83
2022/04/02 13:33:44;;;;;;;2.00;1.30;;;;;;;14.41;70.20;93450.91;5077512;28;20441;-82